Dati Storici

Data ora Umidita' aria (%) Temperatura aria (°C) Rad globale (W/m²) Gonioanemometro (°) Tacoanemometro (m/s) Pioggia (mm)
28-10-2012 21:30 78.9 % 5.771 1.62 6.733 6.03 0
28-10-2012 21:20 80 % 5.58 2.223 11.683 4.081 0
28-10-2012 21:10 81.2 % 5.384 2.377 19.53 4.534 0
28-10-2012 21:00 82.2 % 5.39 2.355 47.54 5.695 0
28-10-2012 20:50 83.3 % 5.273 2.804 29.079 3.191 0
28-10-2012 20:40 82.7 % 5.321 2.804 60.013 5.867 0
28-10-2012 20:30 82.4 % 5.484 2.586 38.288 7.586 0
28-10-2012 20:20 83.2 % 5.576 3.587 22.325 2.949 0
28-10-2012 20:10 85 % 5.387 3.083 25.127 3.692 0
28-10-2012 20:00 85.6 % 5.426 2.903 57.891 5.703 0
28-10-2012 19:50 85.3 % 5.42 3.16 27.751 6.578 0
28-10-2012 19:40 83 % 5.599 3.032 59.877 4.887 0
28-10-2012 19:30 80.8 % 5.965 3.006 45.943 7.345 0
28-10-2012 19:20 81.8 % 5.951 3.403 154.04 1.741 0
28-10-2012 19:10 83 % 5.909 3.391 34.891 4.702 0
28-10-2012 19:00 84.6 % 5.795 3.173 4.536 6.192 0
28-10-2012 18:50 86 % 5.743 2.801 37.108 7.702 0
28-10-2012 18:40 86.9 % 5.648 2.548 32.755 3.744 0
28-10-2012 18:30 88.2 % 5.561 2.548 137.873 2.029 0
28-10-2012 18:20 87.8 % 5.601 2.92 60.116 5.512 0

I dati sono presentati in modo automatico a scopo informativo. In seguito a verifica i dati possono subire modifiche o essere invalidati e non riportati negli archivi definitivi.